Lake Village, AR (71653)

11:57 AM CST on February 24, 2017 (GMT -0600)
Q102 Downtown Greenville | | Change Station

Elev 141 ft 33.41 °N, 91.06 °W | Updated 57 seconds ago

Mostly Cloudy
Mostly Cloudy
72.3 °F
Feels Like 76 °F
N
8.1
Wind Variable Wind from SW
Gusts 12.1 mph

Today
High -- | Low -- °F
--% Chance of Precip.
Yesterday
High -- | Low -- °F
Precip. -- in
Pressure 29.74 in
Visibility 10.0 miles
Clouds Mostly Cloudy 3400 ft
Heat Index 76 °F
Dew Point 60 °F
Humidity 65%
Rainfall 0.00 in
Snow Depth Not available.
6:38 AM 5:58 PM
Waning Crescent, 4% visible
METAR KGLH 241753Z 23016G24KT 10SM BKN034 22/14 A2972 RMK AO2 PK WND 20027/1656 SLP071 T02220139 10222 20128 58006
Pressure 29.74 in
Visibility 10.0 miles
Clouds Mostly Cloudy 3400 ft
Heat Index 76 °F
Dew Point 60 °F
Humidity 65%
Rainfall 0.00 in
Snow Depth Not available.
6:38 AM 5:58 PM
Waning Crescent, 4% visible
METAR KGLH 241753Z 23016G24KT 10SM BKN034 22/14 A2972 RMK AO2 PK WND 20027/1656 SLP071 T02220139 10222 20128 58006

Get Your Daily Forecast Email!

Thanks for signing up!

Be on the lookout for a verification email in your inbox.

You'll start receiving the daily forecast at 8 AM.

×

10-Day Weather Forecast

Almanac

Astronomy

Feb. 24, 2017 Rise Set
Actual Time
Civil Twilight
Nautical Twilight
Astronomical Twilight
Moon
Length of Visible Light
Length of Day
Tomorrow will be .
, % of the Moon is Illuminated

Today's Extremes

State Highs State Lows

Community

WunderPhotos

Upload Photos

1,962,540 photos uploaded!

WunderBlog® & News

Nearby

Air Quality

  Air Quality AQ Index Pollutant
Not available.

Snow Depth

Station Depth Elevation

Earthquake Activity

City Distance Mag. Time & Date
Minimum magnitude displayed is 2.5.

Coastal Water Temperatures

Place Temperature

Stations

Nearby Weather Stations

Station Location Temp. Windchill Dew Point Humidity Wind Precip. Elev Updated Type
                   

Watches & Warnings

There are currently no watches in effect.